createdAt,value
2023-01-09T00:01:04.909Z,3.43
2023-01-09T00:03:31.898Z,3.83
2023-01-09T00:05:58.964Z,3.37
2023-01-09T00:08:25.905Z,3.60
2023-01-09T00:10:52.853Z,2.73
2023-01-09T00:13:20.120Z,3.33
2023-01-09T00:15:49.041Z,3.47
2023-01-09T00:18:16.059Z,3.80
2023-01-09T00:20:43.144Z,2.83
2023-01-09T00:23:10.181Z,3.30
2023-01-09T00:25:37.227Z,3.03
2023-01-09T00:28:04.856Z,3.23
2023-01-09T00:30:31.933Z,3.70
2023-01-09T00:32:58.880Z,3.40
2023-01-09T00:35:28.143Z,4.50
2023-01-09T00:37:55.283Z,4.13
2023-01-09T00:40:22.435Z,3.50
2023-01-09T00:42:56.554Z,3.33
2023-01-09T00:45:29.439Z,4.07
2023-01-09T00:48:10.223Z,3.67
2023-01-09T00:50:38.396Z,3.07
2023-01-09T00:53:15.944Z,3.30
2023-01-09T00:55:43.032Z,3.37
2023-01-09T00:58:10.900Z,2.90
2023-01-09T01:00:37.937Z,2.77
2023-01-09T01:03:04.953Z,3.33
2023-01-09T01:05:50.669Z,4.00
2023-01-09T01:08:21.985Z,3.50
2023-01-09T01:10:49.419Z,2.63
2023-01-09T01:13:17.177Z,3.30
2023-01-09T01:15:45.512Z,3.70
2023-01-09T01:18:14.041Z,3.40
2023-01-09T01:20:42.454Z,3.37
2023-01-09T01:23:09.694Z,4.07
2023-01-09T01:25:41.565Z,3.77
2023-01-09T01:28:09.563Z,3.03
2023-01-09T01:30:41.817Z,3.33
2023-01-09T01:33:09.933Z,4.10
2023-01-09T01:35:37.697Z,4.10
2023-01-09T01:38:04.951Z,3.73
2023-01-09T01:40:31.978Z,3.90
2023-01-09T01:42:58.934Z,4.00
2023-01-09T01:45:29.939Z,4.13
2023-01-09T01:48:02.583Z,4.23
2023-01-09T01:50:41.312Z,4.60
2023-01-09T01:53:39.649Z,3.97
2023-01-09T01:56:28.037Z,4.70
2023-01-09T01:59:18.429Z,4.17
2023-01-09T02:01:54.046Z,4.50
2023-01-09T02:04:21.542Z,5.17
2023-01-09T02:06:52.980Z,5.50
2023-01-09T02:09:23.032Z,4.97
2023-01-09T02:11:54.916Z,4.60
2023-01-09T02:14:24.570Z,5.03
2023-01-09T02:17:15.741Z,5.50
2023-01-09T02:20:19.871Z,5.23
2023-01-09T02:23:17.221Z,4.50
2023-01-09T02:26:05.262Z,4.73
2023-01-09T02:28:56.692Z,5.13
2023-01-09T02:32:01.590Z,5.00
2023-01-09T02:35:09.114Z,4.70
2023-01-09T02:38:01.930Z,4.93
2023-01-09T02:40:36.521Z,5.30
2023-01-09T02:43:05.246Z,5.40
2023-01-09T02:45:32.309Z,5.40
2023-01-09T02:47:59.384Z,5.93
2023-01-09T02:50:48.080Z,5.77
2023-01-09T02:53:32.917Z,5.23
2023-01-09T02:56:35.905Z,6.13
2023-01-09T02:59:15.008Z,5.60
2023-01-09T03:02:03.697Z,5.43
2023-01-09T03:04:58.819Z,6.27
2023-01-09T03:08:03.353Z,6.07
2023-01-09T03:10:38.923Z,7.13
2023-01-09T03:13:09.739Z,6.80
2023-01-09T03:15:39.879Z,6.80
2023-01-09T03:18:09.533Z,6.30
2023-01-09T03:20:38.923Z,7.03
2023-01-09T03:23:07.780Z,7.07
2023-01-09T03:25:35.183Z,6.23
2023-01-09T03:28:05.545Z,7.03
2023-01-09T03:30:35.847Z,7.60
2023-01-09T03:33:03.190Z,6.70
2023-01-09T03:35:30.259Z,6.87
2023-01-09T03:37:59.062Z,7.10
2023-01-09T03:40:26.101Z,7.70
2023-01-09T03:42:53.131Z,7.27
2023-01-09T03:45:20.285Z,7.63
2023-01-09T03:47:47.440Z,7.43
2023-01-09T03:50:14.595Z,6.67
2023-01-09T03:52:41.770Z,8.00
2023-01-09T03:55:09.118Z,6.77
2023-01-09T03:57:36.141Z,6.10
2023-01-09T04:00:05.207Z,7.17
2023-01-09T04:02:32.543Z,7.33
2023-01-09T04:04:59.764Z,7.67
2023-01-09T04:07:26.991Z,7.63
2023-01-09T04:09:54.140Z,7.67
2023-01-09T04:12:21.351Z,8.10
2023-01-09T04:14:48.729Z,8.13
2023-01-09T04:17:16.781Z,8.73
2023-01-09T04:19:44.083Z,7.97
2023-01-09T04:22:11.431Z,8.10
2023-01-09T04:24:38.736Z,7.23
2023-01-09T04:27:06.251Z,8.13
2023-01-09T04:29:33.615Z,9.00
2023-01-09T04:32:01.030Z,7.80
2023-01-09T04:34:28.255Z,8.33
2023-01-09T04:39:38.008Z,7.63
2023-01-09T04:42:07.580Z,7.50
2023-01-09T04:44:34.965Z,8.90
2023-01-09T04:47:08.981Z,8.50
2023-01-09T04:49:36.399Z,9.80
2023-01-09T04:52:04.003Z,8.60
2023-01-09T04:54:32.218Z,7.90
2023-01-09T04:56:59.620Z,8.37
2023-01-09T04:59:27.039Z,9.27
2023-01-09T05:01:57.430Z,8.20
2023-01-09T05:04:27.678Z,8.13
2023-01-09T05:06:55.695Z,8.43
2023-01-09T05:09:23.400Z,9.33
2023-01-09T05:11:51.842Z,9.40
2023-01-09T05:14:19.284Z,8.60
2023-01-09T05:16:47.568Z,8.80
2023-01-09T05:19:15.420Z,10.13
2023-01-09T05:21:44.976Z,9.37
2023-01-09T05:24:12.270Z,9.87
2023-01-09T05:26:39.987Z,9.57
2023-01-09T05:29:09.927Z,10.23
2023-01-09T05:31:37.379Z,10.37
2023-01-09T05:34:05.509Z,9.40
2023-01-09T05:39:14.783Z,9.20
2023-01-09T05:41:42.724Z,9.87
2023-01-09T05:44:10.595Z,9.50
2023-01-09T05:46:38.068Z,8.77
2023-01-09T05:51:52.248Z,10.40
2023-01-09T05:54:31.880Z,9.50
2023-01-09T05:56:59.715Z,9.33
2023-01-09T05:59:28.285Z,10.87
2023-01-09T06:01:55.887Z,8.97
2023-01-09T06:04:23.537Z,8.97
2023-01-09T06:06:51.344Z,8.67
2023-01-09T06:09:18.630Z,11.33
2023-01-09T06:11:46.506Z,8.67
2023-01-09T06:14:14.411Z,9.63
2023-01-09T06:16:41.930Z,10.57
2023-01-09T06:19:14.117Z,10.23
2023-01-09T06:21:44.138Z,10.93
2023-01-09T06:24:11.366Z,10.03
2023-01-09T06:26:38.341Z,9.80
2023-01-09T06:29:05.458Z,9.00
2023-01-09T06:31:32.622Z,9.00
2023-01-09T06:33:59.967Z,8.20
2023-01-09T06:36:28.079Z,9.40
2023-01-09T06:38:55.073Z,9.50
2023-01-09T06:41:25.112Z,9.17
2023-01-09T06:43:52.395Z,9.67
2023-01-09T06:46:19.469Z,10.10
2023-01-09T06:48:46.802Z,10.67
2023-01-09T06:51:14.667Z,9.50
2023-01-09T06:53:45.410Z,9.30
2023-01-09T06:56:12.516Z,9.97
2023-01-09T06:58:40.067Z,11.57
2023-01-09T07:01:09.364Z,11.13
2023-01-09T07:03:39.065Z,10.93
2023-01-09T07:06:07.414Z,11.00
2023-01-09T07:08:34.560Z,10.03
2023-01-09T07:11:01.666Z,10.10
2023-01-09T07:13:28.761Z,10.20
2023-01-09T07:15:56.298Z,10.37
2023-01-09T07:18:23.922Z,12.47
2023-01-09T07:20:51.191Z,9.43
2023-01-09T07:23:18.971Z,8.83
2023-01-09T07:25:49.411Z,10.37
2023-01-09T07:28:17.192Z,9.57
2023-01-09T07:30:46.528Z,7.77
2023-01-09T07:33:13.614Z,8.93
2023-01-09T07:35:40.701Z,9.30
2023-01-09T07:38:07.670Z,10.13
2023-01-09T07:40:34.996Z,8.93
2023-01-09T07:43:02.252Z,9.57
2023-01-09T07:45:29.345Z,9.73
2023-01-09T07:47:56.450Z,10.50
2023-01-09T07:50:23.473Z,9.20
2023-01-09T07:52:50.648Z,10.27
2023-01-09T07:55:17.812Z,9.03
2023-01-09T07:57:49.159Z,9.77
2023-01-09T08:00:16.765Z,10.30
2023-01-09T08:02:43.777Z,10.73
2023-01-09T08:05:15.017Z,11.60
2023-01-09T08:07:42.962Z,9.43
2023-01-09T08:10:11.156Z,9.83
2023-01-09T08:12:38.695Z,9.53
2023-01-09T08:15:06.267Z,8.80
2023-01-09T08:17:33.362Z,9.03
2023-01-09T08:20:00.300Z,8.97
2023-01-09T08:22:27.235Z,9.73
2023-01-09T08:24:54.415Z,8.97
2023-01-09T08:27:21.636Z,9.80
2023-01-09T08:29:48.938Z,11.00
2023-01-09T08:32:15.913Z,10.50
2023-01-09T08:34:43.051Z,10.37
2023-01-09T08:37:10.048Z,9.63
2023-01-09T08:39:37.366Z,10.03
2023-01-09T08:42:23.345Z,8.90
2023-01-09T08:45:09.159Z,10.17
2023-01-09T08:47:37.319Z,10.33
2023-01-09T08:50:04.777Z,11.57
2023-01-09T08:52:32.903Z,11.73
2023-01-09T08:54:59.927Z,11.07
2023-01-09T08:57:27.020Z,11.77
2023-01-09T08:59:54.371Z,9.50
2023-01-09T09:02:21.386Z,11.27
2023-01-09T09:04:53.069Z,9.93
2023-01-09T09:07:26.952Z,11.77
2023-01-09T09:09:54.647Z,11.07
2023-01-09T09:12:22.242Z,11.30
2023-01-09T09:15:07.651Z,12.57
2023-01-09T09:17:35.069Z,10.93
2023-01-09T09:20:02.169Z,10.53
2023-01-09T09:22:29.192Z,11.10
2023-01-09T09:24:56.208Z,10.90
2023-01-09T09:27:23.298Z,10.73
2023-01-09T09:29:50.584Z,10.30
2023-01-09T09:32:17.619Z,10.07
2023-01-09T09:34:44.975Z,10.00
2023-01-09T09:37:12.150Z,10.60
2023-01-09T09:39:39.264Z,10.97
2023-01-09T09:42:32.765Z,10.70
2023-01-09T09:45:10.721Z,10.87
2023-01-09T09:47:46.842Z,10.23
2023-01-09T09:50:40.474Z,9.67
2023-01-09T09:53:16.686Z,12.03
2023-01-09T09:55:45.451Z,9.20
2023-01-09T09:58:31.367Z,10.73
2023-01-09T10:01:00.312Z,10.00
2023-01-09T10:03:41.963Z,9.73
2023-01-09T10:06:37.834Z,9.97
2023-01-09T10:09:29.185Z,12.30
2023-01-09T10:12:06.076Z,10.63
2023-01-09T10:14:33.390Z,11.27
2023-01-09T10:17:03.572Z,11.17
2023-01-09T10:19:30.577Z,8.63
2023-01-09T10:22:27.919Z,10.30
2023-01-09T10:25:26.748Z,10.13
2023-01-09T10:28:27.598Z,11.07
2023-01-09T10:31:13.096Z,14.63
2023-01-09T10:33:43.096Z,10.03
2023-01-09T10:36:37.857Z,10.10
2023-01-09T10:39:16.965Z,9.77
2023-01-09T10:42:37.913Z,10.10
2023-01-09T10:45:32.520Z,10.00
2023-01-09T10:48:23.360Z,9.77
2023-01-09T10:50:55.066Z,9.57
2023-01-09T10:53:25.849Z,11.93
2023-01-09T10:55:57.868Z,12.13
2023-01-09T10:58:25.943Z,8.67
2023-01-09T11:00:53.063Z,9.77
2023-01-09T11:03:23.466Z,9.20
2023-01-09T11:05:58.455Z,8.83
2023-01-09T11:08:42.066Z,11.73
2023-01-09T11:11:10.712Z,9.70
2023-01-09T11:13:43.572Z,9.60
2023-01-09T11:16:24.163Z,9.40
2023-01-09T11:19:00.223Z,9.30
2023-01-09T11:21:40.830Z,8.83
2023-01-09T11:24:24.048Z,9.50
2023-01-09T11:26:53.462Z,8.80
2023-01-09T11:29:25.958Z,8.60
2023-01-09T11:32:00.408Z,8.77
2023-01-09T11:34:37.361Z,9.00
2023-01-09T11:37:11.085Z,9.10
2023-01-09T11:39:42.064Z,8.80
2023-01-09T11:42:41.303Z,14.23
2023-01-09T11:45:19.168Z,8.77
2023-01-09T11:47:47.475Z,9.27
2023-01-09T11:50:29.032Z,8.10
2023-01-09T11:53:17.806Z,7.77
2023-01-09T11:55:57.988Z,9.30
2023-01-09T11:58:25.742Z,8.07
2023-01-09T12:01:28.172Z,7.53
2023-01-09T12:04:35.567Z,8.40
2023-01-09T12:07:21.195Z,7.70
2023-01-09T12:10:02.772Z,7.87
2023-01-09T12:12:54.967Z,7.57
2023-01-09T12:15:50.124Z,6.20
2023-01-09T12:18:23.894Z,7.43
2023-01-09T12:21:17.820Z,7.67
2023-01-09T12:24:04.273Z,7.53
2023-01-09T12:26:50.971Z,7.10
2023-01-09T12:29:20.941Z,7.10
2023-01-09T12:32:18.662Z,7.80
2023-01-09T12:35:15.596Z,7.77
2023-01-09T12:38:05.398Z,7.30
2023-01-09T12:40:42.757Z,7.33
2023-01-09T12:43:33.880Z,7.13
2023-01-09T12:46:18.116Z,9.10
2023-01-09T12:49:00.249Z,7.97
2023-01-09T12:52:04.477Z,8.73
2023-01-09T12:54:35.108Z,8.77
2023-01-09T12:57:11.383Z,8.43
2023-01-09T12:59:49.320Z,9.30
2023-01-09T13:02:27.905Z,9.30
2023-01-09T13:05:11.386Z,9.60
2023-01-09T13:07:48.361Z,10.13
2023-01-09T13:10:23.053Z,9.57
2023-01-09T13:12:52.191Z,10.37
2023-01-09T13:15:33.727Z,10.30
2023-01-09T13:18:07.690Z,10.97
2023-01-09T13:20:34.748Z,8.67
2023-01-09T13:23:04.540Z,10.93
2023-01-09T13:25:44.785Z,9.83
2023-01-09T13:28:21.658Z,11.50
2023-01-09T13:31:03.829Z,10.53
2023-01-09T13:33:37.543Z,10.80
2023-01-09T13:36:37.883Z,9.30
2023-01-09T13:39:06.127Z,11.70
2023-01-09T13:41:51.979Z,12.20
2023-01-09T13:44:19.196Z,13.67
2023-01-09T13:46:53.185Z,11.73
2023-01-09T13:49:35.527Z,14.50
2023-01-09T13:52:26.357Z,12.90
2023-01-09T13:54:56.718Z,16.20
2023-01-09T13:57:35.684Z,13.63
2023-01-09T14:00:17.347Z,14.93
2023-01-09T14:02:47.035Z,14.67
2023-01-09T14:05:24.668Z,15.03
2023-01-09T14:08:07.285Z,13.87
2023-01-09T14:10:44.904Z,14.63
2023-01-09T14:13:17.869Z,13.17
2023-01-09T14:15:47.502Z,13.90
2023-01-09T14:18:22.386Z,15.13
2023-01-09T14:21:05.072Z,15.33
2023-01-09T14:24:02.937Z,16.47
2023-01-09T14:27:00.048Z,12.00
2023-01-09T14:29:32.667Z,11.20
2023-01-09T14:32:26.680Z,12.17
2023-01-09T14:35:01.933Z,12.97
2023-01-09T14:37:31.535Z,12.97
2023-01-09T14:39:59.011Z,13.50
2023-01-09T14:42:32.035Z,13.03
2023-01-09T14:45:19.654Z,12.10
2023-01-09T14:48:00.900Z,12.77
2023-01-09T14:51:00.212Z,12.57
2023-01-09T14:53:34.719Z,11.23
2023-01-09T14:56:06.759Z,12.23
2023-01-09T14:58:39.384Z,10.73
2023-01-09T15:01:08.216Z,9.70
2023-01-09T15:03:44.347Z,9.57
2023-01-09T15:06:25.248Z,7.87
2023-01-09T15:09:02.055Z,7.40
2023-01-09T15:11:33.262Z,7.77
2023-01-09T15:14:05.330Z,8.77
2023-01-09T15:16:33.220Z,7.97
2023-01-09T15:19:20.590Z,8.53
2023-01-09T15:22:03.641Z,7.83
2023-01-09T15:24:42.088Z,10.50
2023-01-09T15:27:19.349Z,9.77
2023-01-09T15:29:46.816Z,9.73
2023-01-09T15:32:17.253Z,8.90
2023-01-09T15:34:46.167Z,9.53
2023-01-09T15:37:38.984Z,8.80
2023-01-09T15:40:10.816Z,8.53
2023-01-09T15:42:58.677Z,10.67
2023-01-09T15:45:45.549Z,11.50
2023-01-09T15:48:19.231Z,12.13
2023-01-09T15:50:51.010Z,10.53
2023-01-09T15:53:27.166Z,10.73
2023-01-09T15:56:16.822Z,12.73
2023-01-09T15:58:49.440Z,12.33
2023-01-09T16:01:32.294Z,11.63
2023-01-09T16:04:18.322Z,10.03
2023-01-09T16:09:38.931Z,14.03
2023-01-09T16:12:06.796Z,15.67
2023-01-09T16:14:40.208Z,16.30
2023-01-09T16:17:16.436Z,14.93
2023-01-09T16:19:58.163Z,16.03
2023-01-09T16:22:26.421Z,12.83
2023-01-09T16:24:55.783Z,16.70
2023-01-09T16:27:27.306Z,18.07
2023-01-09T16:29:59.716Z,17.43
2023-01-09T16:32:32.442Z,14.47
2023-01-09T16:35:16.904Z,12.23
2023-01-09T16:37:45.578Z,12.43
2023-01-09T16:40:16.958Z,14.33
2023-01-09T16:43:01.670Z,11.53
2023-01-09T16:45:41.455Z,12.00
2023-01-09T16:48:16.260Z,14.07
2023-01-09T16:50:44.736Z,16.40
2023-01-09T16:53:24.490Z,16.30
2023-01-09T16:55:55.830Z,12.80
2023-01-09T16:58:32.179Z,11.30
2023-01-09T17:00:59.740Z,12.37
2023-01-09T17:03:27.554Z,14.00
2023-01-09T17:05:57.280Z,17.37
2023-01-09T17:08:30.789Z,14.17
2023-01-09T17:11:00.622Z,9.03
2023-01-09T17:13:27.930Z,12.80
2023-01-09T17:15:57.534Z,12.97
2023-01-09T17:18:26.532Z,11.30
2023-01-09T17:20:59.423Z,8.53
2023-01-09T17:23:26.566Z,9.43
2023-01-09T17:26:18.812Z,10.33
2023-01-09T17:28:51.096Z,10.40
2023-01-09T17:31:19.349Z,12.20
2023-01-09T17:33:46.654Z,12.37
2023-01-09T17:36:35.175Z,11.53
2023-01-09T17:39:02.474Z,12.73
2023-01-09T17:41:42.855Z,13.80
2023-01-09T17:44:12.403Z,14.03
2023-01-09T17:46:41.792Z,10.30
2023-01-09T17:49:16.599Z,15.20
2023-01-09T17:51:44.168Z,13.13
2023-01-09T17:54:11.835Z,13.70
2023-01-09T17:56:45.381Z,14.53
2023-01-09T17:59:14.145Z,13.90
2023-01-09T18:01:43.317Z,14.60
2023-01-09T18:04:11.409Z,14.73
2023-01-09T18:06:38.688Z,15.67
2023-01-09T18:09:07.369Z,15.67
2023-01-09T18:11:34.907Z,11.20
2023-01-09T18:14:02.137Z,17.37
2023-01-09T18:16:29.472Z,12.33
2023-01-09T18:19:00.875Z,12.73
2023-01-09T18:21:29.938Z,10.43
2023-01-09T18:23:58.115Z,10.60
2023-01-09T18:26:25.387Z,13.07
2023-01-09T18:28:57.143Z,12.43
2023-01-09T18:31:26.204Z,12.17
2023-01-09T18:33:56.756Z,11.43
2023-01-09T18:36:30.402Z,6.97
2023-01-09T18:39:03.070Z,8.17
2023-01-09T18:41:31.829Z,9.57
2023-01-09T18:44:01.152Z,10.13
2023-01-09T18:46:32.307Z,8.53
2023-01-09T18:49:02.096Z,9.83
2023-01-09T18:51:32.090Z,10.53
2023-01-09T18:53:59.171Z,11.07
2023-01-09T18:56:26.454Z,11.27
2023-01-09T18:58:57.730Z,11.40
2023-01-09T19:01:29.136Z,11.80
2023-01-09T19:03:58.034Z,12.60
2023-01-09T19:06:26.109Z,12.37
2023-01-09T19:08:53.208Z,10.80
2023-01-09T19:11:20.297Z,12.67
2023-01-09T19:13:48.383Z,13.00
2023-01-09T19:16:15.628Z,12.10
2023-01-09T19:18:43.647Z,15.50
2023-01-09T19:21:14.025Z,13.10
2023-01-09T19:23:42.518Z,15.03
2023-01-09T19:26:23.778Z,12.37
2023-01-09T19:28:52.036Z,11.53
2023-01-09T19:31:19.389Z,16.10
2023-01-09T19:33:46.567Z,13.33
2023-01-09T19:36:13.941Z,11.13
2023-01-09T19:38:41.103Z,15.73
2023-01-09T19:41:19.584Z,11.40
2023-01-09T19:43:47.743Z,10.47
2023-01-09T19:46:17.680Z,13.03
2023-01-09T19:48:45.511Z,14.13
2023-01-09T19:51:15.613Z,9.97
2023-01-09T19:53:42.867Z,9.43
2023-01-09T19:56:15.796Z,10.27
2023-01-09T19:58:48.338Z,9.90
2023-01-09T20:01:18.389Z,9.40
2023-01-09T20:03:47.519Z,10.20
2023-01-09T20:06:24.324Z,9.20
2023-01-09T20:08:56.770Z,6.50
2023-01-09T20:11:25.558Z,8.20
2023-01-09T20:13:53.192Z,7.53
2023-01-09T20:16:23.442Z,7.60
2023-01-09T20:18:50.471Z,7.13
2023-01-09T20:23:51.398Z,6.13
2023-01-09T20:26:19.115Z,6.40
2023-01-09T20:28:47.229Z,5.57
2023-01-09T20:31:16.677Z,5.93
2023-01-09T20:33:44.364Z,6.93
2023-01-09T20:36:11.601Z,7.20
2023-01-09T20:38:40.359Z,7.40
2023-01-09T20:41:26.073Z,7.87
2023-01-09T20:44:02.029Z,6.60
2023-01-09T20:46:31.781Z,6.10
2023-01-09T20:49:00.040Z,6.67
2023-01-09T20:51:27.168Z,5.43
2023-01-09T20:53:58.534Z,5.73
2023-01-09T20:56:30.448Z,6.30
2023-01-09T20:58:59.003Z,6.70
2023-01-09T21:01:26.850Z,4.27
2023-01-09T21:03:55.528Z,6.23
2023-01-09T21:06:24.353Z,6.03
2023-01-09T21:08:53.038Z,7.30
2023-01-09T21:11:22.016Z,7.40
2023-01-09T21:13:49.687Z,6.33
2023-01-09T21:16:20.158Z,7.63
2023-01-09T21:18:48.283Z,6.27
2023-01-09T21:21:21.593Z,5.80
2023-01-09T21:23:55.178Z,5.17
2023-01-09T21:26:30.021Z,5.20
2023-01-09T21:28:59.491Z,4.70
2023-01-09T21:31:34.310Z,6.53
2023-01-09T21:34:07.086Z,7.23
2023-01-09T21:36:35.612Z,6.40
2023-01-09T21:39:08.503Z,8.17
2023-01-09T21:42:05.780Z,3.77
2023-01-09T21:44:51.879Z,5.40
2023-01-09T21:47:30.769Z,5.40
2023-01-09T21:49:57.978Z,6.47
2023-01-09T21:52:25.821Z,5.23
2023-01-09T21:54:53.017Z,5.50
2023-01-09T21:57:20.205Z,4.53
2023-01-09T21:59:47.258Z,6.03
2023-01-09T22:02:15.982Z,6.07
2023-01-09T22:04:43.466Z,5.57
2023-01-09T22:07:10.561Z,6.07
2023-01-09T22:09:39.146Z,6.43
2023-01-09T22:12:06.407Z,5.07
2023-01-09T22:14:33.473Z,6.40
2023-01-09T22:17:00.447Z,6.33
2023-01-09T22:19:28.345Z,5.13
2023-01-09T22:21:55.541Z,5.23
2023-01-09T22:24:22.564Z,5.83
2023-01-09T22:26:49.603Z,6.43
2023-01-09T22:29:16.733Z,6.23
2023-01-09T22:31:43.867Z,5.53
2023-01-09T22:34:15.784Z,6.30
2023-01-09T22:36:43.371Z,4.93
2023-01-09T22:39:13.664Z,5.67
2023-01-09T22:41:40.851Z,5.67
2023-01-09T22:44:09.636Z,6.17
2023-01-09T22:46:36.771Z,6.77
2023-01-09T22:49:04.489Z,6.57
2023-01-09T22:51:33.946Z,6.43
2023-01-09T22:54:01.415Z,5.20
2023-01-09T22:56:28.771Z,7.57
2023-01-09T22:58:59.131Z,6.83
2023-01-09T23:01:26.446Z,6.40
2023-01-09T23:04:04.872Z,7.87
2023-01-09T23:06:32.147Z,6.10
2023-01-09T23:08:59.120Z,6.97
2023-01-09T23:11:48.019Z,6.00
2023-01-09T23:14:15.016Z,6.10
2023-01-09T23:16:43.487Z,6.57
2023-01-09T23:19:14.491Z,6.60
2023-01-09T23:21:42.770Z,7.27
2023-01-09T23:24:10.214Z,7.07
2023-01-09T23:26:39.478Z,7.17
2023-01-09T23:29:07.505Z,6.00
2023-01-09T23:31:34.969Z,7.33
2023-01-09T23:34:02.395Z,5.67
2023-01-09T23:36:29.622Z,7.03
2023-01-09T23:38:57.001Z,5.77
2023-01-09T23:41:43.971Z,5.40
2023-01-09T23:44:11.010Z,7.30
2023-01-09T23:46:37.956Z,5.50
2023-01-09T23:49:05.069Z,5.90
2023-01-09T23:51:32.377Z,5.70
2023-01-09T23:53:59.412Z,5.43
2023-01-09T23:56:26.578Z,3.40
2023-01-09T23:58:53.912Z,2.83
